sensor_id;sensor_type;location;lat;lon;timestamp;P1;durP1;ratioP1;P2;durP2;ratioP2
6723;SDS011;3399;52.530;13.304;2022-12-18T00:01:14;29.60;;;16.63;;
6723;SDS011;3399;52.530;13.304;2022-12-18T00:03:43;26.87;;;16.10;;
6723;SDS011;3399;52.530;13.304;2022-12-18T00:06:09;34.80;;;18.40;;
6723;SDS011;3399;52.530;13.304;2022-12-18T00:08:36;31.87;;;17.73;;
6723;SDS011;3399;52.530;13.304;2022-12-18T00:11:05;33.43;;;17.33;;
6723;SDS011;3399;52.530;13.304;2022-12-18T00:13:33;31.83;;;17.93;;
6723;SDS011;3399;52.530;13.304;2022-12-18T00:16:03;36.80;;;19.30;;
6723;SDS011;3399;52.530;13.304;2022-12-18T00:18:30;34.37;;;17.80;;
6723;SDS011;3399;52.530;13.304;2022-12-18T00:21:00;31.50;;;18.77;;
6723;SDS011;3399;52.530;13.304;2022-12-18T00:23:27;40.90;;;20.27;;
6723;SDS011;3399;52.530;13.304;2022-12-18T00:25:52;30.43;;;18.17;;
6723;SDS011;3399;52.530;13.304;2022-12-18T00:28:18;32.30;;;18.53;;
6723;SDS011;3399;52.530;13.304;2022-12-18T00:30:43;33.20;;;17.23;;
6723;SDS011;3399;52.530;13.304;2022-12-18T00:33:09;38.47;;;20.20;;
6723;SDS011;3399;52.530;13.304;2022-12-18T00:35:34;30.67;;;16.60;;
6723;SDS011;3399;52.530;13.304;2022-12-18T00:38:00;44.30;;;23.17;;
6723;SDS011;3399;52.530;13.304;2022-12-18T00:40:25;34.53;;;18.80;;
6723;SDS011;3399;52.530;13.304;2022-12-18T00:42:51;27.77;;;15.67;;
6723;SDS011;3399;52.530;13.304;2022-12-18T00:45:26;34.97;;;19.27;;
6723;SDS011;3399;52.530;13.304;2022-12-18T00:47:55;31.20;;;18.00;;
6723;SDS011;3399;52.530;13.304;2022-12-18T00:50:21;34.77;;;18.77;;
6723;SDS011;3399;52.530;13.304;2022-12-18T00:52:47;36.77;;;18.67;;
6723;SDS011;3399;52.530;13.304;2022-12-18T00:55:13;29.80;;;17.37;;
6723;SDS011;3399;52.530;13.304;2022-12-18T00:57:38;35.33;;;18.13;;
6723;SDS011;3399;52.530;13.304;2022-12-18T01:00:05;36.53;;;20.43;;
6723;SDS011;3399;52.530;13.304;2022-12-18T01:02:32;31.83;;;17.93;;
6723;SDS011;3399;52.530;13.304;2022-12-18T01:04:57;33.70;;;19.70;;
6723;SDS011;3399;52.530;13.304;2022-12-18T01:07:23;34.70;;;16.00;;
6723;SDS011;3399;52.530;13.304;2022-12-18T01:09:48;33.50;;;17.07;;
6723;SDS011;3399;52.530;13.304;2022-12-18T01:12:14;30.60;;;16.00;;
6723;SDS011;3399;52.530;13.304;2022-12-18T01:14:39;34.97;;;18.37;;
6723;SDS011;3399;52.530;13.304;2022-12-18T01:17:05;36.17;;;16.27;;
6723;SDS011;3399;52.530;13.304;2022-12-18T01:19:31;32.43;;;16.00;;
6723;SDS011;3399;52.530;13.304;2022-12-18T01:21:56;34.87;;;18.70;;
6723;SDS011;3399;52.530;13.304;2022-12-18T01:24:22;31.90;;;18.27;;
6723;SDS011;3399;52.530;13.304;2022-12-18T01:26:48;34.23;;;17.03;;
6723;SDS011;3399;52.530;13.304;2022-12-18T01:29:13;44.50;;;21.67;;
6723;SDS011;3399;52.530;13.304;2022-12-18T01:31:39;38.07;;;20.07;;
6723;SDS011;3399;52.530;13.304;2022-12-18T01:34:05;34.67;;;18.17;;
6723;SDS011;3399;52.530;13.304;2022-12-18T01:36:32;32.73;;;16.10;;
6723;SDS011;3399;52.530;13.304;2022-12-18T01:38:59;38.70;;;19.17;;
6723;SDS011;3399;52.530;13.304;2022-12-18T01:41:28;39.50;;;18.70;;
6723;SDS011;3399;52.530;13.304;2022-12-18T01:47:22;34.90;;;19.17;;
6723;SDS011;3399;52.530;13.304;2022-12-18T01:49:51;43.23;;;21.63;;
6723;SDS011;3399;52.530;13.304;2022-12-18T01:52:17;35.37;;;17.80;;
6723;SDS011;3399;52.530;13.304;2022-12-18T01:54:44;37.50;;;17.47;;
6723;SDS011;3399;52.530;13.304;2022-12-18T01:57:11;39.87;;;21.40;;
6723;SDS011;3399;52.530;13.304;2022-12-18T01:59:36;43.13;;;22.87;;
6723;SDS011;3399;52.530;13.304;2022-12-18T02:02:04;45.67;;;21.40;;
6723;SDS011;3399;52.530;13.304;2022-12-18T02:04:31;59.50;;;28.53;;
6723;SDS011;3399;52.530;13.304;2022-12-18T02:07:40;80.87;;;35.33;;
6723;SDS011;3399;52.530;13.304;2022-12-18T02:09:52;40.43;;;19.37;;
6723;SDS011;3399;52.530;13.304;2022-12-18T02:12:25;44.73;;;22.87;;
6723;SDS011;3399;52.530;13.304;2022-12-18T02:14:59;38.80;;;19.93;;
6723;SDS011;3399;52.530;13.304;2022-12-18T02:20:21;84.80;;;37.70;;
6723;SDS011;3399;52.530;13.304;2022-12-18T02:23:04;38.17;;;18.10;;
6723;SDS011;3399;52.530;13.304;2022-12-18T02:26:06;37.30;;;17.53;;
6723;SDS011;3399;52.530;13.304;2022-12-18T02:28:46;30.77;;;16.27;;
6723;SDS011;3399;52.530;13.304;2022-12-18T02:31:35;34.53;;;17.07;;
6723;SDS011;3399;52.530;13.304;2022-12-18T02:34:04;35.57;;;17.40;;
6723;SDS011;3399;52.530;13.304;2022-12-18T02:36:33;35.13;;;16.27;;
6723;SDS011;3399;52.530;13.304;2022-12-18T02:39:01;33.50;;;17.33;;
6723;SDS011;3399;52.530;13.304;2022-12-18T02:41:27;42.63;;;19.00;;
6723;SDS011;3399;52.530;13.304;2022-12-18T02:43:55;37.97;;;20.43;;
6723;SDS011;3399;52.530;13.304;2022-12-18T02:49:01;38.67;;;18.37;;
6723;SDS011;3399;52.530;13.304;2022-12-18T02:51:55;33.53;;;17.03;;
6723;SDS011;3399;52.530;13.304;2022-12-18T02:57:14;34.77;;;18.00;;
6723;SDS011;3399;52.530;13.304;2022-12-18T02:59:55;32.60;;;16.97;;
6723;SDS011;3399;52.530;13.304;2022-12-18T03:02:33;34.00;;;17.67;;
6723;SDS011;3399;52.530;13.304;2022-12-18T03:07:53;37.03;;;19.17;;
6723;SDS011;3399;52.530;13.304;2022-12-18T03:10:25;27.87;;;15.00;;
6723;SDS011;3399;52.530;13.304;2022-12-18T03:12:56;34.30;;;17.37;;
6723;SDS011;3399;52.530;13.304;2022-12-18T03:15:31;33.00;;;15.80;;
6723;SDS011;3399;52.530;13.304;2022-12-18T03:18:03;35.63;;;17.17;;
6723;SDS011;3399;52.530;13.304;2022-12-18T03:20:34;32.37;;;16.07;;
6723;SDS011;3399;52.530;13.304;2022-12-18T03:23:03;34.50;;;16.57;;
6723;SDS011;3399;52.530;13.304;2022-12-18T03:25:35;35.00;;;16.20;;
6723;SDS011;3399;52.530;13.304;2022-12-18T03:28:04;27.27;;;15.13;;
6723;SDS011;3399;52.530;13.304;2022-12-18T03:30:35;29.53;;;15.63;;
6723;SDS011;3399;52.530;13.304;2022-12-18T03:33:08;39.33;;;18.17;;
6723;SDS011;3399;52.530;13.304;2022-12-18T03:35:40;28.13;;;15.60;;
6723;SDS011;3399;52.530;13.304;2022-12-18T03:38:07;27.90;;;16.07;;
6723;SDS011;3399;52.530;13.304;2022-12-18T03:40:35;29.83;;;16.23;;
6723;SDS011;3399;52.530;13.304;2022-12-18T03:43:19;35.50;;;15.73;;
6723;SDS011;3399;52.530;13.304;2022-12-18T03:46:02;37.47;;;17.07;;
6723;SDS011;3399;52.530;13.304;2022-12-18T03:48:35;33.93;;;16.53;;
6723;SDS011;3399;52.530;13.304;2022-12-18T03:51:07;31.73;;;15.37;;
6723;SDS011;3399;52.530;13.304;2022-12-18T03:53:39;32.50;;;17.07;;
6723;SDS011;3399;52.530;13.304;2022-12-18T03:56:25;35.30;;;17.00;;
6723;SDS011;3399;52.530;13.304;2022-12-18T03:58:54;36.10;;;17.57;;
6723;SDS011;3399;52.530;13.304;2022-12-18T04:01:22;33.20;;;17.00;;
6723;SDS011;3399;52.530;13.304;2022-12-18T04:03:53;37.57;;;18.17;;
6723;SDS011;3399;52.530;13.304;2022-12-18T04:06:19;31.80;;;15.57;;
6723;SDS011;3399;52.530;13.304;2022-12-18T04:08:46;31.90;;;17.57;;
6723;SDS011;3399;52.530;13.304;2022-12-18T04:11:12;32.23;;;18.40;;
6723;SDS011;3399;52.530;13.304;2022-12-18T04:13:37;33.33;;;16.87;;
6723;SDS011;3399;52.530;13.304;2022-12-18T04:16:03;36.33;;;18.07;;
6723;SDS011;3399;52.530;13.304;2022-12-18T04:18:29;38.53;;;18.63;;
6723;SDS011;3399;52.530;13.304;2022-12-18T04:20:55;38.63;;;18.33;;
6723;SDS011;3399;52.530;13.304;2022-12-18T04:23:20;40.57;;;19.97;;
6723;SDS011;3399;52.530;13.304;2022-12-18T04:25:49;36.20;;;18.83;;
6723;SDS011;3399;52.530;13.304;2022-12-18T04:28:14;39.30;;;18.73;;
6723;SDS011;3399;52.530;13.304;2022-12-18T04:30:39;44.57;;;20.17;;
6723;SDS011;3399;52.530;13.304;2022-12-18T04:33:09;39.53;;;20.47;;
6723;SDS011;3399;52.530;13.304;2022-12-18T04:35:35;43.57;;;19.87;;
6723;SDS011;3399;52.530;13.304;2022-12-18T04:38:01;42.60;;;20.70;;
6723;SDS011;3399;52.530;13.304;2022-12-18T04:40:26;42.90;;;19.97;;
6723;SDS011;3399;52.530;13.304;2022-12-18T04:42:52;43.17;;;21.57;;
6723;SDS011;3399;52.530;13.304;2022-12-18T04:45:17;47.50;;;21.00;;
6723;SDS011;3399;52.530;13.304;2022-12-18T04:47:43;48.53;;;22.03;;
6723;SDS011;3399;52.530;13.304;2022-12-18T04:50:08;48.07;;;21.13;;
6723;SDS011;3399;52.530;13.304;2022-12-18T04:52:34;44.80;;;22.43;;
6723;SDS011;3399;52.530;13.304;2022-12-18T04:55:01;49.23;;;24.30;;
6723;SDS011;3399;52.530;13.304;2022-12-18T04:57:26;48.67;;;23.20;;
6723;SDS011;3399;52.530;13.304;2022-12-18T04:59:52;45.37;;;22.63;;
6723;SDS011;3399;52.530;13.304;2022-12-18T05:02:17;46.07;;;21.13;;
6723;SDS011;3399;52.530;13.304;2022-12-18T05:04:43;45.47;;;23.13;;
6723;SDS011;3399;52.530;13.304;2022-12-18T05:07:08;52.30;;;24.20;;
6723;SDS011;3399;52.530;13.304;2022-12-18T05:09:34;43.57;;;21.83;;
6723;SDS011;3399;52.530;13.304;2022-12-18T05:11:59;55.97;;;23.20;;
6723;SDS011;3399;52.530;13.304;2022-12-18T05:14:25;48.53;;;25.60;;
6723;SDS011;3399;52.530;13.304;2022-12-18T05:16:52;55.13;;;25.00;;
6723;SDS011;3399;52.530;13.304;2022-12-18T05:19:17;58.87;;;24.67;;
6723;SDS011;3399;52.530;13.304;2022-12-18T05:21:43;52.50;;;24.37;;
6723;SDS011;3399;52.530;13.304;2022-12-18T05:24:08;49.63;;;23.23;;
6723;SDS011;3399;52.530;13.304;2022-12-18T05:26:34;54.07;;;24.80;;
6723;SDS011;3399;52.530;13.304;2022-12-18T05:28:59;59.40;;;27.10;;
6723;SDS011;3399;52.530;13.304;2022-12-18T05:31:25;55.17;;;25.80;;
6723;SDS011;3399;52.530;13.304;2022-12-18T05:33:50;57.73;;;24.33;;
6723;SDS011;3399;52.530;13.304;2022-12-18T05:36:16;64.57;;;28.27;;
6723;SDS011;3399;52.530;13.304;2022-12-18T05:38:41;56.23;;;25.47;;
6723;SDS011;3399;52.530;13.304;2022-12-18T05:41:07;57.90;;;25.60;;
6723;SDS011;3399;52.530;13.304;2022-12-18T05:43:34;56.10;;;25.77;;
6723;SDS011;3399;52.530;13.304;2022-12-18T05:46:10;71.37;;;29.70;;
6723;SDS011;3399;52.530;13.304;2022-12-18T05:48:38;54.23;;;25.90;;
6723;SDS011;3399;52.530;13.304;2022-12-18T05:51:04;59.33;;;27.43;;
6723;SDS011;3399;52.530;13.304;2022-12-18T05:53:36;54.37;;;22.90;;
6723;SDS011;3399;52.530;13.304;2022-12-18T05:56:02;54.00;;;24.73;;
6723;SDS011;3399;52.530;13.304;2022-12-18T05:58:30;64.73;;;27.67;;
6723;SDS011;3399;52.530;13.304;2022-12-18T06:00:56;63.90;;;25.97;;
6723;SDS011;3399;52.530;13.304;2022-12-18T06:03:30;64.17;;;28.53;;
6723;SDS011;3399;52.530;13.304;2022-12-18T06:05:56;57.90;;;25.93;;
6723;SDS011;3399;52.530;13.304;2022-12-18T06:08:21;54.50;;;24.60;;
6723;SDS011;3399;52.530;13.304;2022-12-18T06:10:50;47.77;;;21.90;;
6723;SDS011;3399;52.530;13.304;2022-12-18T06:13:19;49.63;;;24.07;;
6723;SDS011;3399;52.530;13.304;2022-12-18T06:15:46;49.20;;;22.30;;
6723;SDS011;3399;52.530;13.304;2022-12-18T06:18:11;53.27;;;23.90;;
6723;SDS011;3399;52.530;13.304;2022-12-18T06:20:37;43.30;;;22.53;;
6723;SDS011;3399;52.530;13.304;2022-12-18T06:23:05;55.80;;;26.93;;
6723;SDS011;3399;52.530;13.304;2022-12-18T06:25:31;51.83;;;24.40;;
6723;SDS011;3399;52.530;13.304;2022-12-18T06:27:57;42.97;;;21.17;;
6723;SDS011;3399;52.530;13.304;2022-12-18T06:30:23;43.53;;;21.67;;
6723;SDS011;3399;52.530;13.304;2022-12-18T06:32:49;47.10;;;22.53;;
6723;SDS011;3399;52.530;13.304;2022-12-18T06:35:15;45.90;;;21.23;;
6723;SDS011;3399;52.530;13.304;2022-12-18T06:37:40;47.30;;;23.43;;
6723;SDS011;3399;52.530;13.304;2022-12-18T06:40:06;50.90;;;24.83;;
6723;SDS011;3399;52.530;13.304;2022-12-18T06:42:32;52.27;;;23.63;;
6723;SDS011;3399;52.530;13.304;2022-12-18T06:44:57;49.00;;;24.30;;
6723;SDS011;3399;52.530;13.304;2022-12-18T06:47:23;51.13;;;24.03;;
6723;SDS011;3399;52.530;13.304;2022-12-18T06:49:49;52.73;;;24.90;;
6723;SDS011;3399;52.530;13.304;2022-12-18T06:52:14;52.27;;;22.70;;
6723;SDS011;3399;52.530;13.304;2022-12-18T06:54:40;55.80;;;24.67;;
6723;SDS011;3399;52.530;13.304;2022-12-18T06:57:05;59.13;;;29.67;;
6723;SDS011;3399;52.530;13.304;2022-12-18T06:59:31;62.17;;;28.03;;
6723;SDS011;3399;52.530;13.304;2022-12-18T07:01:56;58.67;;;25.50;;
6723;SDS011;3399;52.530;13.304;2022-12-18T07:04:22;50.60;;;23.57;;
6723;SDS011;3399;52.530;13.304;2022-12-18T07:06:51;59.10;;;27.07;;
6723;SDS011;3399;52.530;13.304;2022-12-18T07:09:17;61.97;;;27.87;;
6723;SDS011;3399;52.530;13.304;2022-12-18T07:11:42;52.70;;;23.63;;
6723;SDS011;3399;52.530;13.304;2022-12-18T07:14:08;54.07;;;23.97;;
6723;SDS011;3399;52.530;13.304;2022-12-18T07:16:33;61.07;;;25.40;;
6723;SDS011;3399;52.530;13.304;2022-12-18T07:18:59;62.70;;;29.37;;
6723;SDS011;3399;52.530;13.304;2022-12-18T07:21:24;59.87;;;26.60;;
6723;SDS011;3399;52.530;13.304;2022-12-18T07:23:50;62.83;;;28.70;;
6723;SDS011;3399;52.530;13.304;2022-12-18T07:26:16;59.53;;;27.60;;
6723;SDS011;3399;52.530;13.304;2022-12-18T07:28:43;59.43;;;25.60;;
6723;SDS011;3399;52.530;13.304;2022-12-18T07:31:10;54.83;;;27.93;;
6723;SDS011;3399;52.530;13.304;2022-12-18T07:33:37;60.87;;;26.23;;
6723;SDS011;3399;52.530;13.304;2022-12-18T07:36:04;59.20;;;27.30;;
6723;SDS011;3399;52.530;13.304;2022-12-18T07:38:31;51.53;;;24.70;;
6723;SDS011;3399;52.530;13.304;2022-12-18T07:41:00;51.83;;;24.27;;
6723;SDS011;3399;52.530;13.304;2022-12-18T07:43:34;47.40;;;25.37;;
6723;SDS011;3399;52.530;13.304;2022-12-18T07:46:01;49.17;;;24.97;;
6723;SDS011;3399;52.530;13.304;2022-12-18T07:48:27;51.97;;;23.70;;
6723;SDS011;3399;52.530;13.304;2022-12-18T07:50:53;45.60;;;22.17;;
6723;SDS011;3399;52.530;13.304;2022-12-18T07:53:22;45.90;;;22.47;;
6723;SDS011;3399;52.530;13.304;2022-12-18T07:55:48;41.47;;;21.80;;
6723;SDS011;3399;52.530;13.304;2022-12-18T07:58:13;42.40;;;21.57;;
6723;SDS011;3399;52.530;13.304;2022-12-18T08:00:38;40.80;;;20.03;;
6723;SDS011;3399;52.530;13.304;2022-12-18T08:03:04;43.10;;;20.73;;
6723;SDS011;3399;52.530;13.304;2022-12-18T08:05:29;37.43;;;18.47;;
6723;SDS011;3399;52.530;13.304;2022-12-18T08:07:55;39.07;;;17.53;;
6723;SDS011;3399;52.530;13.304;2022-12-18T08:10:21;40.27;;;18.67;;
6723;SDS011;3399;52.530;13.304;2022-12-18T08:12:50;43.03;;;19.33;;
6723;SDS011;3399;52.530;13.304;2022-12-18T08:15:16;43.77;;;21.10;;
6723;SDS011;3399;52.530;13.304;2022-12-18T08:17:42;42.73;;;20.03;;
6723;SDS011;3399;52.530;13.304;2022-12-18T08:20:07;38.53;;;19.17;;
6723;SDS011;3399;52.530;13.304;2022-12-18T08:22:34;44.33;;;20.73;;
6723;SDS011;3399;52.530;13.304;2022-12-18T08:25:04;45.23;;;21.87;;
6723;SDS011;3399;52.530;13.304;2022-12-18T08:27:30;44.67;;;22.00;;
6723;SDS011;3399;52.530;13.304;2022-12-18T08:29:56;44.53;;;20.73;;
6723;SDS011;3399;52.530;13.304;2022-12-18T08:32:22;38.53;;;18.77;;
6723;SDS011;3399;52.530;13.304;2022-12-18T08:34:48;40.53;;;18.83;;
6723;SDS011;3399;52.530;13.304;2022-12-18T08:37:13;47.63;;;21.57;;
6723;SDS011;3399;52.530;13.304;2022-12-18T08:39:38;48.07;;;20.47;;
6723;SDS011;3399;52.530;13.304;2022-12-18T08:42:04;34.93;;;17.73;;
6723;SDS011;3399;52.530;13.304;2022-12-18T08:44:48;40.90;;;19.73;;
6723;SDS011;3399;52.530;13.304;2022-12-18T08:47:14;36.77;;;17.40;;
6723;SDS011;3399;52.530;13.304;2022-12-18T08:49:39;44.40;;;20.30;;
6723;SDS011;3399;52.530;13.304;2022-12-18T08:52:05;42.33;;;20.27;;
6723;SDS011;3399;52.530;13.304;2022-12-18T08:54:30;42.60;;;20.43;;
6723;SDS011;3399;52.530;13.304;2022-12-18T08:56:56;39.90;;;20.90;;
6723;SDS011;3399;52.530;13.304;2022-12-18T08:59:21;41.73;;;21.73;;
6723;SDS011;3399;52.530;13.304;2022-12-18T09:01:48;42.03;;;20.93;;
6723;SDS011;3399;52.530;13.304;2022-12-18T09:04:14;43.27;;;19.13;;
6723;SDS011;3399;52.530;13.304;2022-12-18T09:06:39;40.57;;;19.43;;
6723;SDS011;3399;52.530;13.304;2022-12-18T09:09:05;38.57;;;19.53;;
6723;SDS011;3399;52.530;13.304;2022-12-18T09:11:31;44.60;;;20.57;;
6723;SDS011;3399;52.530;13.304;2022-12-18T09:13:58;36.13;;;18.27;;
6723;SDS011;3399;52.530;13.304;2022-12-18T09:16:25;33.57;;;18.93;;
6723;SDS011;3399;52.530;13.304;2022-12-18T09:18:53;37.97;;;18.67;;
6723;SDS011;3399;52.530;13.304;2022-12-18T09:21:24;37.93;;;17.90;;
6723;SDS011;3399;52.530;13.304;2022-12-18T09:23:51;37.90;;;19.10;;
6723;SDS011;3399;52.530;13.304;2022-12-18T09:26:18;39.77;;;18.50;;
6723;SDS011;3399;52.530;13.304;2022-12-18T09:28:44;40.07;;;19.50;;
6723;SDS011;3399;52.530;13.304;2022-12-18T09:31:11;32.33;;;17.77;;
6723;SDS011;3399;52.530;13.304;2022-12-18T09:33:38;37.97;;;18.13;;
6723;SDS011;3399;52.530;13.304;2022-12-18T09:36:04;37.13;;;19.23;;
6723;SDS011;3399;52.530;13.304;2022-12-18T09:38:31;33.20;;;18.70;;
6723;SDS011;3399;52.530;13.304;2022-12-18T09:40:59;34.37;;;17.63;;
6723;SDS011;3399;52.530;13.304;2022-12-18T09:43:33;34.33;;;18.20;;
6723;SDS011;3399;52.530;13.304;2022-12-18T09:46:06;30.63;;;18.33;;
6723;SDS011;3399;52.530;13.304;2022-12-18T09:48:36;34.37;;;17.40;;
6723;SDS011;3399;52.530;13.304;2022-12-18T09:51:11;34.67;;;16.97;;
6723;SDS011;3399;52.530;13.304;2022-12-18T09:54:01;36.07;;;19.13;;
6723;SDS011;3399;52.530;13.304;2022-12-18T09:56:31;41.90;;;20.43;;
6723;SDS011;3399;52.530;13.304;2022-12-18T09:59:02;36.03;;;18.90;;
6723;SDS011;3399;52.530;13.304;2022-12-18T10:01:29;34.83;;;18.30;;
6723;SDS011;3399;52.530;13.304;2022-12-18T10:03:56;28.47;;;16.80;;
6723;SDS011;3399;52.530;13.304;2022-12-18T10:06:30;30.20;;;15.77;;
6723;SDS011;3399;52.530;13.304;2022-12-18T10:11:43;27.23;;;15.63;;
6723;SDS011;3399;52.530;13.304;2022-12-18T10:14:30;28.00;;;16.33;;
6723;SDS011;3399;52.530;13.304;2022-12-18T10:20:21;33.10;;;17.37;;
6723;SDS011;3399;52.530;13.304;2022-12-18T10:22:58;33.47;;;16.50;;
6723;SDS011;3399;52.530;13.304;2022-12-18T10:25:40;35.83;;;17.93;;
6723;SDS011;3399;52.530;13.304;2022-12-18T10:28:18;35.20;;;17.53;;
6723;SDS011;3399;52.530;13.304;2022-12-18T10:30:45;32.93;;;19.17;;
6723;SDS011;3399;52.530;13.304;2022-12-18T10:33:14;34.40;;;16.07;;
6723;SDS011;3399;52.530;13.304;2022-12-18T10:35:43;36.80;;;18.17;;
6723;SDS011;3399;52.530;13.304;2022-12-18T10:40:53;32.53;;;15.83;;
6723;SDS011;3399;52.530;13.304;2022-12-18T10:43:27;33.53;;;16.20;;
6723;SDS011;3399;52.530;13.304;2022-12-18T10:48:33;32.33;;;17.13;;
6723;SDS011;3399;52.530;13.304;2022-12-18T10:51:18;35.17;;;17.20;;
6723;SDS011;3399;52.530;13.304;2022-12-18T10:53:47;37.10;;;16.80;;
6723;SDS011;3399;52.530;13.304;2022-12-18T10:56:26;31.50;;;17.30;;
6723;SDS011;3399;52.530;13.304;2022-12-18T10:59:00;32.57;;;17.17;;
6723;SDS011;3399;52.530;13.304;2022-12-18T11:01:44;38.90;;;18.30;;
6723;SDS011;3399;52.530;13.304;2022-12-18T11:04:16;35.57;;;18.03;;
6723;SDS011;3399;52.530;13.304;2022-12-18T11:07:00;39.30;;;19.80;;
6723;SDS011;3399;52.530;13.304;2022-12-18T11:09:35;34.23;;;18.00;;
6723;SDS011;3399;52.530;13.304;2022-12-18T11:12:03;36.90;;;19.67;;
6723;SDS011;3399;52.530;13.304;2022-12-18T11:14:51;34.07;;;18.70;;
6723;SDS011;3399;52.530;13.304;2022-12-18T11:17:28;38.93;;;20.90;;
6723;SDS011;3399;52.530;13.304;2022-12-18T11:19:56;36.70;;;18.77;;
6723;SDS011;3399;52.530;13.304;2022-12-18T11:22:27;33.40;;;18.83;;
6723;SDS011;3399;52.530;13.304;2022-12-18T11:27:35;40.83;;;21.87;;
6723;SDS011;3399;52.530;13.304;2022-12-18T11:30:13;31.87;;;18.87;;
6723;SDS011;3399;52.530;13.304;2022-12-18T11:32:59;31.73;;;18.27;;
6723;SDS011;3399;52.530;13.304;2022-12-18T11:35:50;39.80;;;18.87;;
6723;SDS011;3399;52.530;13.304;2022-12-18T11:38:26;32.07;;;18.13;;
6723;SDS011;3399;52.530;13.304;2022-12-18T11:41:04;45.33;;;20.27;;
6723;SDS011;3399;52.530;13.304;2022-12-18T11:44:14;37.33;;;19.27;;
6723;SDS011;3399;52.530;13.304;2022-12-18T11:46:47;40.03;;;18.13;;
6723;SDS011;3399;52.530;13.304;2022-12-18T11:49:25;39.93;;;17.77;;
6723;SDS011;3399;52.530;13.304;2022-12-18T11:54:46;30.60;;;16.80;;
6723;SDS011;3399;52.530;13.304;2022-12-18T11:57:19;38.43;;;15.93;;
6723;SDS011;3399;52.530;13.304;2022-12-18T12:11:25;30.77;;;16.80;;
6723;SDS011;3399;52.530;13.304;2022-12-18T12:16:48;30.03;;;18.13;;
6723;SDS011;3399;52.530;13.304;2022-12-18T12:24:49;29.37;;;15.83;;
6723;SDS011;3399;52.530;13.304;2022-12-18T12:27:19;31.50;;;17.37;;
6723;SDS011;3399;52.530;13.304;2022-12-18T12:30:24;38.00;;;16.63;;
6723;SDS011;3399;52.530;13.304;2022-12-18T12:35:46;31.03;;;17.23;;
6723;SDS011;3399;52.530;13.304;2022-12-18T12:38:35;36.67;;;18.37;;
6723;SDS011;3399;52.530;13.304;2022-12-18T12:41:09;36.03;;;17.50;;
6723;SDS011;3399;52.530;13.304;2022-12-18T12:43:58;32.40;;;17.00;;
6723;SDS011;3399;52.530;13.304;2022-12-18T12:46:27;38.57;;;21.27;;
6723;SDS011;3399;52.530;13.304;2022-12-18T12:48:58;33.80;;;16.77;;
6723;SDS011;3399;52.530;13.304;2022-12-18T12:51:32;35.07;;;19.17;;
6723;SDS011;3399;52.530;13.304;2022-12-18T12:54:04;35.10;;;18.40;;
6723;SDS011;3399;52.530;13.304;2022-12-18T12:56:40;34.43;;;18.77;;
6723;SDS011;3399;52.530;13.304;2022-12-18T13:04:41;36.90;;;19.03;;
6723;SDS011;3399;52.530;13.304;2022-12-18T13:07:32;43.20;;;20.67;;
6723;SDS011;3399;52.530;13.304;2022-12-18T13:12:58;30.57;;;17.60;;
6723;SDS011;3399;52.530;13.304;2022-12-18T13:18:11;31.87;;;17.97;;
6723;SDS011;3399;52.530;13.304;2022-12-18T13:20:41;31.27;;;17.00;;
6723;SDS011;3399;52.530;13.304;2022-12-18T13:25:53;38.17;;;18.53;;
6723;SDS011;3399;52.530;13.304;2022-12-18T13:31:08;30.33;;;18.60;;
6723;SDS011;3399;52.530;13.304;2022-12-18T13:33:38;30.90;;;15.67;;
6723;SDS011;3399;52.530;13.304;2022-12-18T13:38:47;34.83;;;17.23;;
6723;SDS011;3399;52.530;13.304;2022-12-18T13:41:32;28.17;;;16.50;;
6723;SDS011;3399;52.530;13.304;2022-12-18T13:44:10;26.13;;;16.13;;
6723;SDS011;3399;52.530;13.304;2022-12-18T13:46:43;33.73;;;17.87;;
6723;SDS011;3399;52.530;13.304;2022-12-18T13:51:40;33.27;;;18.37;;
6723;SDS011;3399;52.530;13.304;2022-12-18T13:56:47;35.97;;;18.50;;
6723;SDS011;3399;52.530;13.304;2022-12-18T14:01:45;32.50;;;19.77;;
6723;SDS011;3399;52.530;13.304;2022-12-18T14:04:20;29.80;;;20.07;;
6723;SDS011;3399;52.530;13.304;2022-12-18T14:07:03;34.23;;;19.37;;
6723;SDS011;3399;52.530;13.304;2022-12-18T14:09:35;33.43;;;19.17;;
6723;SDS011;3399;52.530;13.304;2022-12-18T14:12:06;27.80;;;15.17;;
6723;SDS011;3399;52.530;13.304;2022-12-18T14:14:57;26.70;;;16.87;;
6723;SDS011;3399;52.530;13.304;2022-12-18T14:17:23;24.93;;;16.30;;
6723;SDS011;3399;52.530;13.304;2022-12-18T14:19:50;24.17;;;16.67;;
6723;SDS011;3399;52.530;13.304;2022-12-18T14:22:17;29.43;;;16.77;;
6723;SDS011;3399;52.530;13.304;2022-12-18T14:24:44;29.03;;;17.73;;
6723;SDS011;3399;52.530;13.304;2022-12-18T14:27:24;29.20;;;19.03;;
6723;SDS011;3399;52.530;13.304;2022-12-18T14:29:50;35.00;;;20.20;;
6723;SDS011;3399;52.530;13.304;2022-12-18T14:32:17;37.63;;;19.97;;
6723;SDS011;3399;52.530;13.304;2022-12-18T14:34:44;29.43;;;19.20;;
6723;SDS011;3399;52.530;13.304;2022-12-18T14:37:22;35.33;;;22.57;;
6723;SDS011;3399;52.530;13.304;2022-12-18T14:39:56;37.80;;;23.80;;
6723;SDS011;3399;52.530;13.304;2022-12-18T14:42:24;32.00;;;20.43;;
6723;SDS011;3399;52.530;13.304;2022-12-18T14:45:18;34.93;;;22.83;;
6723;SDS011;3399;52.530;13.304;2022-12-18T14:47:57;33.00;;;21.63;;
6723;SDS011;3399;52.530;13.304;2022-12-18T14:50:23;35.93;;;22.50;;
6723;SDS011;3399;52.530;13.304;2022-12-18T14:52:50;33.93;;;20.97;;
6723;SDS011;3399;52.530;13.304;2022-12-18T14:55:16;32.27;;;19.67;;
6723;SDS011;3399;52.530;13.304;2022-12-18T14:57:43;31.90;;;19.97;;
6723;SDS011;3399;52.530;13.304;2022-12-18T15:00:18;34.80;;;19.17;;
6723;SDS011;3399;52.530;13.304;2022-12-18T15:02:46;27.40;;;18.13;;
6723;SDS011;3399;52.530;13.304;2022-12-18T15:05:18;31.00;;;18.03;;
6723;SDS011;3399;52.530;13.304;2022-12-18T15:07:47;29.23;;;17.10;;
6723;SDS011;3399;52.530;13.304;2022-12-18T15:10:16;26.97;;;18.80;;
6723;SDS011;3399;52.530;13.304;2022-12-18T15:17:59;30.63;;;17.97;;
6723;SDS011;3399;52.530;13.304;2022-12-18T15:20:25;25.83;;;18.17;;
6723;SDS011;3399;52.530;13.304;2022-12-18T15:22:51;22.43;;;15.33;;
6723;SDS011;3399;52.530;13.304;2022-12-18T15:25:27;29.20;;;17.10;;
6723;SDS011;3399;52.530;13.304;2022-12-18T15:27:57;29.77;;;18.47;;
6723;SDS011;3399;52.530;13.304;2022-12-18T15:30:25;27.23;;;17.63;;
6723;SDS011;3399;52.530;13.304;2022-12-18T15:32:51;25.87;;;16.37;;
6723;SDS011;3399;52.530;13.304;2022-12-18T15:35:37;27.77;;;17.03;;
6723;SDS011;3399;52.530;13.304;2022-12-18T15:38:02;24.77;;;16.43;;
6723;SDS011;3399;52.530;13.304;2022-12-18T15:40:28;25.43;;;15.70;;
6723;SDS011;3399;52.530;13.304;2022-12-18T15:42:53;23.83;;;14.50;;
6723;SDS011;3399;52.530;13.304;2022-12-18T15:45:39;21.03;;;12.43;;
6723;SDS011;3399;52.530;13.304;2022-12-18T15:48:15;18.13;;;12.43;;
6723;SDS011;3399;52.530;13.304;2022-12-18T15:50:45;21.30;;;13.33;;
6723;SDS011;3399;52.530;13.304;2022-12-18T15:53:11;16.87;;;10.30;;
6723;SDS011;3399;52.530;13.304;2022-12-18T15:55:36;24.63;;;14.53;;
6723;SDS011;3399;52.530;13.304;2022-12-18T15:58:21;19.53;;;13.43;;
6723;SDS011;3399;52.530;13.304;2022-12-18T16:00:46;24.60;;;14.13;;
6723;SDS011;3399;52.530;13.304;2022-12-18T16:03:12;20.30;;;13.10;;
6723;SDS011;3399;52.530;13.304;2022-12-18T16:05:37;21.07;;;14.43;;
6723;SDS011;3399;52.530;13.304;2022-12-18T16:08:03;26.70;;;15.33;;
6723;SDS011;3399;52.530;13.304;2022-12-18T16:10:29;23.03;;;15.40;;
6723;SDS011;3399;52.530;13.304;2022-12-18T16:12:54;24.67;;;15.90;;
6723;SDS011;3399;52.530;13.304;2022-12-18T16:15:20;22.43;;;15.03;;